Time;durP1;ratioP1;P1;durP2;ratioP2;P2;SDS_P1;SDS_P2;PMS_P1;PMS_P2;Temp;Humidity;BMP_temperature;BMP_pressure;BME280_temperature;BME280_humidity;BME280_pressure;Samples;Min_cycle;Max_cycle;Signal;HPM_P1;HPM_P2
2022/06/27 00:02:09;;;;;;;3.20;2.40;;;20.30;92.90;;;;;;10515467;28;20385;-58
2022/06/27 00:07:11;;;;;;;3.15;2.38;;;20.30;92.90;;;;;;10512970;28;20044;-58
2022/06/27 00:12:12;;;;;;;2.40;2.20;;;20.20;92.90;;;;;;10511944;28;20089;-58
2022/06/27 00:17:13;;;;;;;2.50;2.10;;;20.20;92.90;;;;;;10510489;28;20070;-58
2022/06/27 00:22:13;;;;;;;3.40;2.35;;;20.20;92.90;;;;;;10510465;28;20190;-57
2022/06/27 00:27:14;;;;;;;3.15;2.30;;;20.20;93.00;;;;;;10507012;28;20519;-59
2022/06/27 00:32:16;;;;;;;2.58;2.10;;;20.20;93.00;;;;;;10508052;28;20115;-57
2022/06/27 00:37:16;;;;;;;2.90;2.40;;;20.20;93.30;;;;;;10507404;28;20064;-58
2022/06/27 00:42:17;;;;;;;4.57;2.45;;;20.20;93.00;;;;;;10499797;28;20121;-57
2022/06/27 00:47:18;;;;;;;4.28;2.35;;;20.20;93.10;;;;;;10503551;28;20039;-57
2022/06/27 00:52:19;;;;;;;2.88;2.03;;;20.20;93.10;;;;;;10508567;28;20020;-59
2022/06/27 00:57:20;;;;;;;4.25;2.50;;;20.20;93.10;;;;;;10504276;28;20493;-60
2022/06/27 01:02:20;;;;;;;2.90;2.40;;;20.20;93.20;;;;;;10509012;28;20048;-60
2022/06/27 01:07:21;;;;;;;3.63;2.17;;;20.10;93.10;;;;;;10507740;28;20040;-60
2022/06/27 01:12:23;;;;;;;4.78;2.55;;;20.10;93.20;;;;;;10509086;28;20024;-59
2022/06/27 01:17:24;;;;;;;3.13;2.33;;;20.10;93.20;;;;;;10501624;28;20476;-60
2022/06/27 01:22:25;;;;;;;2.70;2.10;;;20.10;93.20;;;;;;10508340;28;20030;-58
2022/06/27 01:27:26;;;;;;;3.00;2.40;;;20.10;93.20;;;;;;10509050;28;20369;-59
2022/06/27 01:32:26;;;;;;;2.58;2.05;;;20.10;93.20;;;;;;10502789;28;20042;-60
2022/06/27 01:37:27;;;;;;;2.58;2.38;;;20.00;93.20;;;;;;10506210;28;20028;-58
2022/06/27 01:42:29;;;;;;;3.05;2.10;;;20.00;93.20;;;;;;10504722;28;20024;-60
2022/06/27 01:47:31;;;;;;;2.40;2.15;;;20.00;93.20;;;;;;10507548;28;20039;-59
2022/06/27 01:52:32;;;;;;;3.13;2.38;;;20.00;93.30;;;;;;10509498;28;20538;-58
2022/06/27 01:57:33;;;;;;;2.50;2.13;;;20.00;93.30;;;;;;10501875;28;20472;-59
2022/06/27 02:02:34;;;;;;;2.40;2.20;;;20.00;93.30;;;;;;10502373;28;20028;-59
2022/06/27 02:07:37;;;;;;;4.97;2.30;;;20.00;93.30;;;;;;10501492;28;20124;-58
2022/06/27 02:12:39;;;;;;;2.60;2.28;;;20.00;93.30;;;;;;10503926;28;20024;-59
2022/06/27 02:17:40;;;;;;;2.63;2.35;;;20.00;93.30;;;;;;10508840;28;20033;-57
2022/06/27 02:22:41;;;;;;;3.05;2.30;;;20.00;93.40;;;;;;10498725;28;20535;-60
2022/06/27 02:27:43;;;;;;;4.55;2.15;;;20.00;93.40;;;;;;10492613;28;20032;-60
2022/06/27 02:32:44;;;;;;;2.83;2.42;;;20.00;93.40;;;;;;10505712;28;20031;-57
2022/06/27 02:37:44;;;;;;;3.15;2.38;;;20.00;93.40;;;;;;10500208;28;20035;-58
2022/06/27 02:42:46;;;;;;;4.75;2.45;;;19.90;93.40;;;;;;10501134;28;20690;-60
2022/06/27 02:47:49;;;;;;;3.13;2.42;;;19.90;93.40;;;;;;10508219;28;20127;-58
2022/06/27 02:52:56;;;;;;;4.95;2.13;;;19.90;93.50;;;;;;10497401;28;20107;-57
2022/06/27 02:58:00;;;;;;;2.70;2.30;;;19.90;93.50;;;;;;10502717;28;20030;-58
2022/06/27 03:03:03;;;;;;;4.38;2.60;;;19.90;93.50;;;;;;10496386;28;20036;-58
2022/06/27 03:08:04;;;;;;;2.97;2.08;;;19.90;93.50;;;;;;10501078;28;20039;-58
2022/06/27 03:13:05;;;;;;;2.45;2.25;;;19.90;93.50;;;;;;10500157;28;20442;-58
2022/06/27 03:18:06;;;;;;;3.60;2.30;;;19.90;93.50;;;;;;10452981;28;1331923;-58
2022/06/27 03:23:06;;;;;;;3.28;2.30;;;19.90;93.50;;;;;;10496742;28;20385;-57
2022/06/27 03:28:07;;;;;;;2.72;2.33;;;19.90;93.60;;;;;;10502776;28;20036;-58
2022/06/27 03:33:08;;;;;;;2.63;2.08;;;19.90;93.60;;;;;;10505095;28;20024;-59
2022/06/27 03:38:10;;;;;;;3.35;2.45;;;19.80;93.60;;;;;;10503441;28;20074;-59
2022/06/27 03:43:11;;;;;;;4.22;2.70;;;19.80;93.60;;;;;;10505070;28;20107;-59
2022/06/27 03:49:59;;;;;;;5.20;2.45;;;19.80;93.60;;;;;;10497713;28;20032;-59
2022/06/27 03:53:32;;;;;;;3.42;3.13;;;19.80;93.60;;;;;;10499352;28;20020;-58
2022/06/27 03:58:33;;;;;;;2.75;2.20;;;19.80;93.60;;;;;;10496174;28;20616;-59
2022/06/27 04:03:35;;;;;;;2.60;2.25;;;19.80;93.60;;;;;;10501146;28;20586;-58
2022/06/27 04:08:35;;;;;;;4.25;2.58;;;19.80;93.70;;;;;;10506067;28;20042;-58
2022/06/27 04:13:36;;;;;;;3.25;2.45;;;19.80;93.70;;;;;;10504822;28;20579;-58
2022/06/27 04:18:37;;;;;;;3.17;2.28;;;19.80;93.70;;;;;;10515859;28;20044;-58
2022/06/27 04:23:37;;;;;;;3.38;1.92;;;19.80;93.70;;;;;;10515100;28;20032;-58
2022/06/27 04:28:38;;;;;;;3.17;2.50;;;19.80;93.70;;;;;;10504921;28;20060;-58
2022/06/27 04:33:39;;;;;;;3.83;2.40;;;19.80;93.70;;;;;;10505007;28;20031;-60
2022/06/27 04:38:39;;;;;;;2.47;2.28;;;19.80;93.70;;;;;;10456689;28;20624;-57
2022/06/27 04:43:40;;;;;;;3.28;2.70;;;19.70;93.70;;;;;;10414119;28;20032;-58
2022/06/27 04:48:41;;;;;;;3.63;2.65;;;19.70;93.70;;;;;;10416230;28;21028;-58
2022/06/27 04:53:44;;;;;;;5.07;2.38;;;19.70;93.70;;;;;;10408466;28;20330;-58
2022/06/27 04:58:45;;;;;;;3.50;2.63;;;19.70;93.70;;;;;;10413058;28;20040;-58
2022/06/27 05:03:46;;;;;;;2.80;2.47;;;19.70;93.70;;;;;;10412881;28;20948;-58
2022/06/27 05:08:47;;;;;;;4.10;2.53;;;19.70;93.70;;;;;;10415536;28;20028;-58
2022/06/27 05:13:47;;;;;;;4.03;2.42;;;19.70;93.70;;;;;;10412041;28;20202;-58
2022/06/27 05:18:48;;;;;;;4.43;2.58;;;19.70;93.70;;;;;;10419030;28;20071;-58
2022/06/27 05:23:50;;;;;;;3.03;2.38;;;19.70;93.70;;;;;;10410469;28;20035;-57
2022/06/27 05:28:52;;;;;;;2.60;2.40;;;19.70;93.70;;;;;;10403577;28;20435;-58
2022/06/27 05:33:53;;;;;;;2.95;2.63;;;19.80;93.70;;;;;;10402303;28;20329;-57
2022/06/27 05:38:54;;;;;;;3.42;2.30;;;19.80;93.60;;;;;;10407134;28;20035;-59
2022/06/27 05:43:56;;;;;;;3.25;2.28;;;19.80;93.60;;;;;;10416864;28;20058;-58
2022/06/27 05:48:57;;;;;;;3.65;2.60;;;19.80;93.70;;;;;;10410662;28;20067;-58
2022/06/27 05:54:00;;;;;;;2.33;2.13;;;19.80;93.60;;;;;;10413358;28;20139;-57
2022/06/27 05:59:02;;;;;;;2.83;2.38;;;19.80;93.60;;;;;;10414182;28;20307;-58
2022/06/27 06:04:03;;;;;;;3.00;2.30;;;19.80;93.60;;;;;;10412539;28;20818;-57
2022/06/27 06:09:04;;;;;;;2.35;2.15;;;19.80;93.60;;;;;;10414891;28;20048;-57
2022/06/27 06:14:06;;;;;;;2.53;2.33;;;19.90;93.60;;;;;;10415924;28;20074;-58
2022/06/27 06:19:07;;;;;;;2.60;2.40;;;19.80;93.60;;;;;;10422632;28;20578;-58
2022/06/27 06:24:08;;;;;;;5.95;2.45;;;19.80;93.60;;;;;;10415061;28;20032;-63
2022/06/27 06:29:15;;;;;;;3.97;2.83;;;19.80;93.70;;;;;;10409216;28;20036;-56
2022/06/27 06:34:16;;;;;;;5.90;2.60;;;19.80;93.70;;;;;;10409585;28;20098;-58
2022/06/27 06:39:17;;;;;;;3.88;2.42;;;19.80;93.70;;;;;;10412146;28;20148;-58
2022/06/27 06:44:19;;;;;;;3.38;2.20;;;19.80;93.70;;;;;;10419885;28;20036;-59
2022/06/27 06:49:21;;;;;;;3.50;2.35;;;19.80;93.70;;;;;;10416627;28;20063;-60
2022/06/27 06:54:26;;;;;;;4.80;2.47;;;19.80;93.70;;;;;;10414083;28;20894;-60
2022/06/27 06:59:26;;;;;;;3.45;2.80;;;19.80;93.70;;;;;;10415820;28;20027;-60
2022/06/27 07:04:28;;;;;;;3.65;2.65;;;19.80;93.70;;;;;;10417178;28;20024;-60
2022/06/27 07:09:29;;;;;;;2.65;2.45;;;19.80;93.70;;;;;;10415164;28;20849;-57
2022/06/27 07:14:30;;;;;;;4.60;2.60;;;19.80;93.70;;;;;;10406983;28;20028;-59
2022/06/27 07:19:30;;;;;;;5.40;2.40;;;19.80;93.70;;;;;;10410197;28;20052;-57
2022/06/27 07:24:32;;;;;;;2.92;2.40;;;19.80;93.70;;;;;;10414183;28;20020;-57
2022/06/27 07:29:33;;;;;;;4.45;2.50;;;19.80;93.70;;;;;;10417927;28;20225;-60
2022/06/27 07:34:37;;;;;;;3.60;2.60;;;19.80;93.80;;;;;;10417496;28;20909;-57
2022/06/27 07:39:38;;;;;;;3.88;2.22;;;19.80;93.80;;;;;;10417062;28;20481;-57
2022/06/27 07:44:39;;;;;;;3.05;2.80;;;19.80;93.80;;;;;;10421722;28;20071;-58
2022/06/27 07:49:40;;;;;;;3.13;2.00;;;19.80;93.80;;;;;;10409766;28;20043;-58
2022/06/27 07:54:41;;;;;;;3.30;2.38;;;19.80;93.80;;;;;;10422232;28;20040;-57
2022/06/27 07:59:42;;;;;;;6.10;2.40;;;19.90;93.80;;;;;;10416341;28;20271;-57
2022/06/27 08:04:44;;;;;;;2.80;2.47;;;19.90;93.80;;;;;;10419438;28;22421;-59
2022/06/27 08:09:45;;;;;;;3.80;2.58;;;19.90;93.80;;;;;;10410090;28;20105;-58
2022/06/27 08:14:45;;;;;;;3.40;2.45;;;20.00;93.80;;;;;;10421619;28;20089;-58
2022/06/27 08:19:46;;;;;;;3.22;2.38;;;20.00;93.70;;;;;;10415242;28;20907;-58
2022/06/27 08:24:47;;;;;;;3.20;2.60;;;20.00;93.70;;;;;;10413412;28;20337;-57
2022/06/27 08:29:47;;;;;;;4.03;2.60;;;20.00;93.70;;;;;;10409717;28;20499;-58
2022/06/27 08:34:51;;;;;;;3.20;2.47;;;19.90;93.90;;;;;;10413705;28;20794;-57
2022/06/27 08:39:52;;;;;;;3.30;2.38;;;19.90;93.90;;;;;;10416263;28;20039;-58
2022/06/27 08:44:52;;;;;;;4.75;2.30;;;19.90;93.90;;;;;;10411602;28;20520;-58
2022/06/27 08:49:53;;;;;;;3.13;2.30;;;20.00;93.80;;;;;;10414418;28;20047;-57
2022/06/27 08:54:56;;;;;;;4.65;2.08;;;20.00;93.70;;;;;;10417035;28;20036;-57
2022/06/27 08:59:58;;;;;;;3.92;2.40;;;20.10;93.70;;;;;;10427115;28;20037;-57
2022/06/27 09:05:02;;;;;;;4.30;2.10;;;20.10;93.60;;;;;;10414689;28;20033;-58
2022/06/27 09:10:25;;;;;;;2.50;2.00;;;20.20;93.50;;;;;;10421469;28;20040;-58
2022/06/27 09:15:48;;;;;;;2.53;1.90;;;20.30;93.60;;;;;;10414467;28;20032;-58
2022/06/27 09:21:01;;;;;;;3.85;2.80;;;20.30;93.60;;;;;;10409061;28;20151;-59
2022/06/27 09:26:27;;;;;;;3.83;2.67;;;20.30;93.70;;;;;;10415129;28;20054;-58
2022/06/27 09:31:35;;;;;;;5.15;2.45;;;20.30;94.00;;;;;;10411416;28;20024;-61
2022/06/27 09:36:39;;;;;;;5.47;2.83;;;20.30;94.00;;;;;;10415682;28;20598;-59
2022/06/27 09:41:41;;;;;;;4.25;2.97;;;20.40;94.00;;;;;;10414059;28;20077;-60
2022/06/27 09:46:48;;;;;;;6.50;3.83;;;20.50;93.90;;;;;;10409435;28;20207;-60
2022/06/27 09:51:50;;;;;;;8.40;4.35;;;20.50;93.90;;;;;;10419836;28;20040;-61
2022/06/27 09:56:52;;;;;;;5.82;3.83;;;20.40;94.00;;;;;;10410363;28;20429;-61
2022/06/27 10:01:57;;;;;;;7.40;4.30;;;20.40;94.00;;;;;;10409142;28;21002;-62
2022/06/27 10:07:01;;;;;;;5.60;3.70;;;20.50;94.10;;;;;;10411669;28;20063;-59
2022/06/27 10:12:36;;;;;;;4.80;3.92;;;20.40;94.20;;;;;;10407043;28;20024;-59
2022/06/27 10:17:43;;;;;;;6.78;4.55;;;20.30;94.70;;;;;;10406716;28;20917;-60
2022/06/27 10:22:47;;;;;;;6.70;4.20;;;20.20;94.60;;;;;;10422022;28;20585;-59
2022/06/27 10:33:23;;;;;;;8.52;5.43;;;20.30;94.50;;;;;;10417250;28;20526;-61
2022/06/27 10:38:35;;;;;;;8.85;5.35;;;20.30;94.70;;;;;;10409989;28;20036;-59
2022/06/27 10:43:36;;;;;;;6.85;4.95;;;20.30;94.90;;;;;;10405763;28;20138;-61
2022/06/27 10:48:46;;;;;;;8.88;5.53;;;20.30;94.90;;;;;;10415138;28;20040;-59
2022/06/27 10:53:48;;;;;;;7.78;5.05;;;20.40;95.10;;;;;;10420795;28;20284;-59
2022/06/27 10:58:49;;;;;;;8.15;5.55;;;20.40;94.70;;;;;;10409209;28;20133;-59
2022/06/27 11:03:50;;;;;;;6.55;5.22;;;20.60;94.70;;;;;;10414234;28;20025;-59
2022/06/27 11:08:53;;;;;;;8.13;5.10;;;20.80;94.40;;;;;;10411596;28;20036;-59
2022/06/27 11:13:59;;;;;;;6.57;5.25;;;20.80;94.20;;;;;;10421472;28;20032;-60
2022/06/27 11:20:04;;;;;;;15.32;5.78;;;20.90;94.20;;;;;;10428701;28;20576;-58
2022/06/27 11:24:26;;;;;;;9.55;6.03;;;20.90;93.80;;;;;;10427247;28;20132;-61
2022/06/27 11:34:51;;;;;;;8.23;5.43;;;20.80;93.90;;;;;;10416383;28;20736;-60
2022/06/27 11:40:03;;;;;;;6.50;4.85;;;20.80;93.60;;;;;;10419742;28;21100;-61
2022/06/27 11:45:09;;;;;;;7.88;4.40;;;20.80;93.70;;;;;;10419387;28;20801;-62
2022/06/27 11:50:13;;;;;;;7.70;5.18;;;20.90;93.70;;;;;;10419322;28;20060;-61
2022/06/27 11:55:16;;;;;;;6.85;3.88;;;20.90;93.60;;;;;;10420969;28;20857;-61
2022/06/27 12:00:19;;;;;;;4.95;3.53;;;21.10;93.20;;;;;;10418029;28;20471;-59
2022/06/27 12:05:22;;;;;;;7.72;3.63;;;21.30;92.80;;;;;;10415222;28;20276;-63
2022/06/27 12:10:45;;;;;;;9.10;3.78;;;21.60;92.20;;;;;;10428566;28;20044;-61
2022/06/27 12:15:47;;;;;;;6.88;4.70;;;21.70;91.70;;;;;;10425646;28;20028;-61
2022/06/27 12:20:48;;;;;;;6.50;4.43;;;21.90;91.80;;;;;;10426129;28;20082;-64
2022/06/27 12:25:49;;;;;;;8.50;4.80;;;21.80;91.80;;;;;;10420734;28;21943;-60
2022/06/27 12:30:50;;;;;;;7.78;5.07;;;21.60;91.80;;;;;;10427361;28;20062;-61
2022/06/27 12:35:51;;;;;;;7.65;4.82;;;21.30;92.00;;;;;;10422295;28;20032;-63
2022/06/27 12:41:11;;;;;;;7.90;3.95;;;21.20;92.40;;;;;;10425688;28;20455;-67
2022/06/27 12:46:13;;;;;;;5.75;3.90;;;21.10;92.40;;;;;;10429107;28;20403;-64
2022/06/27 12:51:14;;;;;;;7.40;4.57;;;21.00;92.40;;;;;;10426685;28;21307;-60
2022/06/27 12:56:16;;;;;;;6.95;4.18;;;21.00;92.40;;;;;;10422855;28;20040;-60
2022/06/27 13:01:17;;;;;;;6.57;3.80;;;20.80;92.60;;;;;;10419616;28;20060;-60
2022/06/27 13:06:17;;;;;;;6.50;4.78;;;20.70;92.90;;;;;;10421111;28;21037;-62
2022/06/27 13:11:18;;;;;;;8.55;5.55;;;20.70;93.40;;;;;;10416649;28;20028;-62
2022/06/27 13:16:20;;;;;;;8.13;5.55;;;20.70;93.70;;;;;;10413205;28;20054;-60
2022/06/27 13:21:20;;;;;;;7.68;5.63;;;20.60;94.20;;;;;;10420714;28;20520;-59
2022/06/27 13:26:21;;;;;;;8.10;5.05;;;20.50;94.70;;;;;;10418579;28;20039;-59
2022/06/27 13:31:22;;;;;;;12.02;6.65;;;20.40;95.00;;;;;;10422087;28;20036;-59
2022/06/27 13:36:24;;;;;;;11.13;6.60;;;20.40;95.20;;;;;;10421810;28;20498;-61
2022/06/27 13:41:24;;;;;;;8.20;6.03;;;20.30;95.50;;;;;;10411083;28;20123;-58
2022/06/27 13:46:25;;;;;;;9.18;6.97;;;20.20;95.50;;;;;;10419051;28;20056;-58
2022/06/27 13:51:26;;;;;;;10.13;6.78;;;20.30;95.60;;;;;;10418308;28;20107;-63
2022/06/27 13:56:26;;;;;;;11.00;6.20;;;20.30;95.70;;;;;;10413851;28;20090;-62
2022/06/27 14:01:27;;;;;;;10.18;6.93;;;20.30;95.70;;;;;;10414871;28;20126;-59
2022/06/27 14:11:47;;;;;;;9.60;6.20;;;20.40;95.60;;;;;;10421370;28;20028;-69
2022/06/27 14:16:47;;;;;;;9.40;7.05;;;20.30;95.70;;;;;;10416726;28;20416;-63
2022/06/27 14:21:49;;;;;;;9.90;5.88;;;20.30;95.80;;;;;;10413655;28;20143;-60
2022/06/27 14:26:49;;;;;;;8.07;5.60;;;20.40;95.90;;;;;;10408821;28;20044;-59
2022/06/27 14:31:50;;;;;;;9.05;5.97;;;20.40;95.90;;;;;;10417124;28;20495;-60
2022/06/27 14:36:51;;;;;;;10.27;5.53;;;20.50;95.90;;;;;;10414879;28;20035;-58
2022/06/27 14:41:52;;;;;;;7.30;5.05;;;20.50;95.80;;;;;;10410894;28;20139;-60
2022/06/27 14:46:54;;;;;;;6.03;3.60;;;20.60;95.80;;;;;;10411580;28;20105;-57
2022/06/27 14:51:55;;;;;;;10.13;4.25;;;20.60;95.80;;;;;;10411779;28;20075;-58
2022/06/27 14:56:57;;;;;;;5.20;3.80;;;20.60;95.80;;;;;;10409971;28;20571;-57
2022/06/27 15:01:58;;;;;;;4.68;3.25;;;20.60;95.80;;;;;;10411947;28;20036;-57
2022/06/27 15:06:59;;;;;;;5.72;4.00;;;20.70;95.80;;;;;;10416056;28;20938;-58
2022/06/27 15:11:59;;;;;;;5.65;3.72;;;20.70;95.80;;;;;;10411450;28;20593;-60
2022/06/27 15:17:00;;;;;;;4.70;3.70;;;20.60;95.80;;;;;;10414258;28;20055;-59
2022/06/27 15:22:01;;;;;;;7.30;3.72;;;20.60;95.90;;;;;;10415771;28;20083;-57
2022/06/27 15:27:02;;;;;;;5.10;3.50;;;20.60;95.90;;;;;;10414611;28;20814;-58
2022/06/27 15:32:03;;;;;;;5.78;3.83;;;20.50;95.90;;;;;;10427690;28;20089;-59
2022/06/27 15:37:04;;;;;;;4.63;3.38;;;20.60;95.90;;;;;;10415932;28;20058;-59
2022/06/27 15:42:05;;;;;;;7.53;3.90;;;20.60;95.90;;;;;;10415628;28;20059;-61
2022/06/27 15:47:06;;;;;;;4.20;3.05;;;20.50;95.90;;;;;;10413548;28;20044;-56
2022/06/27 15:52:07;;;;;;;6.32;3.47;;;20.50;95.90;;;;;;10423246;28;20032;-57
2022/06/27 15:57:08;;;;;;;6.53;3.20;;;20.50;95.90;;;;;;10418196;28;20070;-57
2022/06/27 16:02:09;;;;;;;6.45;4.32;;;20.50;96.00;;;;;;10417211;28;20569;-63
2022/06/27 16:07:09;;;;;;;8.60;4.32;;;20.50;96.00;;;;;;10415182;28;20705;-57
2022/06/27 16:12:10;;;;;;;10.10;3.38;;;20.50;96.10;;;;;;10427423;28;20036;-57
2022/06/27 16:17:11;;;;;;;8.65;3.42;;;20.50;96.00;;;;;;10427657;28;20090;-59
2022/06/27 16:22:12;;;;;;;6.93;3.50;;;20.50;96.00;;;;;;10420257;28;20041;-58
2022/06/27 16:27:12;;;;;;;8.63;3.20;;;20.50;95.90;;;;;;10412762;28;21194;-57
2022/06/27 16:32:13;;;;;;;5.93;3.33;;;20.40;95.90;;;;;;10417727;28;20614;-58
2022/06/27 16:37:15;;;;;;;4.93;2.60;;;20.40;96.00;;;;;;10422930;28;20072;-59
2022/06/27 16:47:35;;;;;;;5.18;3.30;;;20.30;95.90;;;;;;10418926;28;20040;-57
2022/06/27 16:52:36;;;;;;;5.70;3.35;;;20.30;96.00;;;;;;10416688;28;20574;-58
2022/06/27 16:57:36;;;;;;;5.15;2.72;;;20.40;96.00;;;;;;10415215;28;20887;-58
2022/06/27 17:02:37;;;;;;;6.32;2.80;;;20.40;95.90;;;;;;10415160;28;20469;-58
2022/06/27 17:07:38;;;;;;;10.02;3.17;;;20.40;95.90;;;;;;10422380;28;20048;-60
2022/06/27 17:12:38;;;;;;;8.27;2.72;;;20.40;95.80;;;;;;10417534;28;20472;-63
2022/06/27 17:17:39;;;;;;;6.63;2.65;;;20.40;95.80;;;;;;10423450;28;20056;-59
2022/06/27 17:22:40;;;;;;;4.90;2.72;;;20.40;95.80;;;;;;10419503;28;20251;-61
2022/06/27 17:27:41;;;;;;;3.08;2.50;;;20.40;95.70;;;;;;10422525;28;20044;-66
2022/06/27 17:32:42;;;;;;;3.85;2.38;;;20.40;95.60;;;;;;10422545;28;20032;-60
2022/06/27 17:37:43;;;;;;;3.45;2.28;;;20.30;95.50;;;;;;10417651;28;20028;-64
2022/06/27 17:42:44;;;;;;;3.47;2.70;;;20.20;95.50;;;;;;10413309;28;20120;-62
2022/06/27 17:47:45;;;;;;;4.15;2.55;;;20.00;95.80;;;;;;10417202;28;20205;-59
2022/06/27 17:52:46;;;;;;;5.93;3.70;;;19.90;96.00;;;;;;10418070;28;20054;-58
2022/06/27 17:57:47;;;;;;;12.80;5.53;;;19.90;96.10;;;;;;10412098;28;20862;-56
2022/06/27 18:02:48;;;;;;;80.63;24.92;;;20.00;95.90;;;;;;10417506;28;20024;-57
2022/06/27 18:07:48;;;;;;;226.55;71.72;;;20.20;95.80;;;;;;10418675;28;20999;-58
2022/06/27 18:12:49;;;;;;;187.38;63.08;;;20.30;95.70;;;;;;10419947;28;20256;-62
2022/06/27 18:17:50;;;;;;;212.55;68.00;;;20.30;95.60;;;;;;10416937;28;20345;-60
2022/06/27 18:22:51;;;;;;;219.73;72.47;;;20.40;95.60;;;;;;10413798;28;20765;-58
2022/06/27 18:27:52;;;;;;;221.43;73.65;;;20.40;95.60;;;;;;10410420;28;20046;-60
2022/06/27 18:32:53;;;;;;;185.30;61.70;;;20.30;95.90;;;;;;10412010;28;20385;-58
2022/06/27 18:37:53;;;;;;;233.00;75.88;;;20.30;95.60;;;;;;10415490;28;20417;-59
2022/06/27 18:42:54;;;;;;;187.68;62.15;;;20.30;95.70;;;;;;10411015;28;20430;-59
2022/06/27 18:47:55;;;;;;;152.48;50.90;;;20.20;95.70;;;;;;10412402;28;20045;-57
2022/06/27 18:52:56;;;;;;;126.32;46.53;;;20.20;95.70;;;;;;10417955;28;20032;-57
2022/06/27 18:57:57;;;;;;;128.20;42.90;;;20.20;95.70;;;;;;10410898;28;20052;-57
2022/06/27 19:02:57;;;;;;;116.18;40.60;;;20.10;95.70;;;;;;10407028;28;20029;-57
2022/06/27 19:07:58;;;;;;;107.07;37.40;;;20.10;95.70;;;;;;10408091;28;20044;-57
2022/06/27 19:12:59;;;;;;;104.68;35.90;;;20.10;95.70;;;;;;10410975;28;20020;-57
2022/06/27 19:18:00;;;;;;;94.53;35.92;;;20.00;95.60;;;;;;10418692;28;20201;-58
2022/06/27 19:23:00;;;;;;;87.18;32.85;;;20.00;95.60;;;;;;10420937;28;20403;-58
2022/06/27 19:28:01;;;;;;;85.18;30.63;;;20.00;95.70;;;;;;10407202;28;21247;-57
2022/06/27 19:33:03;;;;;;;74.38;27.65;;;20.00;95.60;;;;;;10410827;28;20024;-60
2022/06/27 19:38:06;;;;;;;74.82;25.58;;;19.90;95.60;;;;;;10417277;28;20028;-59
2022/06/27 19:43:07;;;;;;;65.72;24.60;;;19.90;95.60;;;;;;10418404;28;20720;-57
2022/06/27 19:48:09;;;;;;;57.92;20.67;;;19.90;95.60;;;;;;10422642;28;20044;-58
2022/06/27 19:53:10;;;;;;;54.03;20.02;;;19.80;95.60;;;;;;10411241;28;21482;-63
2022/06/27 19:58:11;;;;;;;54.42;20.35;;;19.80;95.60;;;;;;10413710;28;20728;-57
2022/06/27 20:03:11;;;;;;;49.83;18.15;;;19.80;95.60;;;;;;10405915;28;20032;-57
2022/06/27 20:08:13;;;;;;;47.67;16.67;;;19.80;95.60;;;;;;10426539;28;20051;-58
2022/06/27 20:13:13;;;;;;;43.28;16.77;;;19.70;95.60;;;;;;10419897;28;20024;-57
2022/06/27 20:18:14;;;;;;;38.60;15.57;;;19.70;95.60;;;;;;10424265;28;20060;-61
2022/06/27 20:23:15;;;;;;;36.20;12.68;;;19.70;95.60;;;;;;10418437;28;20035;-58
2022/06/27 20:28:16;;;;;;;39.00;13.25;;;19.70;95.60;;;;;;10486397;28;20048;-63
2022/06/27 20:33:18;;;;;;;29.15;11.48;;;19.70;95.60;;;;;;10510405;28;20031;-57
2022/06/27 20:38:19;;;;;;;28.48;10.27;;;19.70;95.60;;;;;;10508281;28;20039;-57
2022/06/27 20:43:20;;;;;;;26.52;9.98;;;19.60;95.50;;;;;;10505433;28;20481;-58
2022/06/27 20:48:20;;;;;;;21.77;9.90;;;19.60;95.50;;;;;;10509077;28;20390;-56
2022/06/27 20:53:21;;;;;;;19.35;8.32;;;19.60;95.50;;;;;;10511707;28;20065;-63
2022/06/27 20:58:22;;;;;;;20.17;8.73;;;19.60;95.50;;;;;;10500895;28;20032;-64
2022/06/27 21:03:23;;;;;;;20.05;7.95;;;19.50;95.50;;;;;;10498963;28;20384;-58
2022/06/27 21:13:43;;;;;;;15.57;6.93;;;19.50;95.50;;;;;;10505413;28;20205;-62
2022/06/27 21:18:44;;;;;;;15.55;6.57;;;19.40;95.50;;;;;;10512425;28;20044;-56
2022/06/27 21:23:45;;;;;;;17.23;6.13;;;19.40;95.50;;;;;;10504433;28;20028;-58
2022/06/27 21:28:45;;;;;;;16.27;5.35;;;19.40;95.60;;;;;;10511919;28;20451;-64
2022/06/27 21:33:46;;;;;;;12.35;5.10;;;19.40;95.60;;;;;;10512726;28;20499;-59
2022/06/27 21:38:47;;;;;;;14.75;4.68;;;19.30;95.60;;;;;;10517272;28;20020;-57
2022/06/27 21:43:48;;;;;;;13.40;3.65;;;19.30;95.60;;;;;;10510191;28;20031;-61
2022/06/27 21:48:48;;;;;;;8.65;4.00;;;19.30;95.60;;;;;;10505710;28;20032;-57
2022/06/27 21:53:49;;;;;;;7.90;3.50;;;19.30;95.60;;;;;;10513207;28;20040;-56
2022/06/27 21:58:51;;;;;;;7.43;3.45;;;19.20;95.60;;;;;;10505207;28;20446;-63
2022/06/27 22:03:52;;;;;;;5.43;3.22;;;19.20;95.60;;;;;;10504673;28;20035;-63
2022/06/27 22:08:52;;;;;;;5.72;3.22;;;19.20;95.50;;;;;;10505838;28;20496;-57
2022/06/27 22:13:53;;;;;;;7.78;3.05;;;19.20;95.50;;;;;;10507877;28;20413;-59
2022/06/27 22:18:54;;;;;;;8.95;3.13;;;19.10;95.50;;;;;;10502668;28;20043;-62
2022/06/27 22:23:55;;;;;;;5.60;2.78;;;19.10;95.50;;;;;;10506956;28;20114;-57
2022/06/27 22:28:55;;;;;;;6.53;2.83;;;19.10;95.50;;;;;;10502108;28;20044;-56
2022/06/27 22:33:56;;;;;;;4.53;2.30;;;19.10;95.50;;;;;;10504279;28;20024;-58
2022/06/27 22:38:57;;;;;;;5.18;2.63;;;19.00;95.40;;;;;;10501993;28;20036;-60
2022/06/27 22:43:58;;;;;;;4.20;2.70;;;19.00;95.40;;;;;;10503496;28;20078;-64
2022/06/27 22:48:58;;;;;;;5.22;2.20;;;19.00;95.40;;;;;;10501980;28;20037;-63
2022/06/27 22:53:59;;;;;;;3.50;2.00;;;19.00;95.40;;;;;;10505821;28;20370;-61
2022/06/27 22:59:00;;;;;;;3.28;2.08;;;19.00;95.40;;;;;;10508672;28;20043;-57
2022/06/27 23:04:01;;;;;;;3.90;2.13;;;18.90;95.40;;;;;;10504795;28;20552;-60
2022/06/27 23:09:02;;;;;;;4.10;1.90;;;18.90;95.40;;;;;;10504032;28;20051;-59
2022/06/27 23:14:02;;;;;;;2.92;2.00;;;18.90;95.40;;;;;;10513639;28;20021;-62
2022/06/27 23:19:04;;;;;;;3.95;2.08;;;18.90;95.40;;;;;;10519998;28;20379;-60
2022/06/27 23:24:05;;;;;;;2.22;1.80;;;18.80;95.30;;;;;;10517275;28;20024;-58
2022/06/27 23:29:05;;;;;;;4.45;1.90;;;18.80;95.30;;;;;;10511932;28;20512;-63
2022/06/27 23:34:06;;;;;;;3.33;1.80;;;18.80;95.30;;;;;;10518644;28;20020;-61
2022/06/27 23:39:07;;;;;;;3.17;1.92;;;18.80;95.20;;;;;;10513793;28;20040;-60
2022/06/27 23:44:10;;;;;;;3.25;1.70;;;18.80;95.20;;;;;;10509782;28;20023;-56
2022/06/27 23:49:11;;;;;;;4.00;2.00;;;18.70;95.20;;;;;;10510815;28;20035;-64
2022/06/27 23:54:13;;;;;;;2.70;1.50;;;18.70;95.20;;;;;;10515501;28;20048;-58
2022/06/27 23:59:14;;;;;;;2.67;1.75;;;18.70;95.10;;;;;;10511361;28;20048;-59
